Latest Weather Observations for Falls Creek

IDV60801

Issued at 6:12 am EST Tuesday 7 July 2020 (issued every 10 minutes, with the page automatically refreshed every 10 minutes)

About weather observations | Map of weather stations | Latest weather observations for VIC | Other Formats
Station Details ID: 083084 Name: FALLS CREEK Lat: -36.87 Lon: 147.28 Height: 1765.0 m
Data from the previous 72 hours. | See also: Recent months at Falls Creek
Date/Time
EST
Temp
°C
App
Temp
°C
Dew
Point
°C
Rel
Hum
%
Delta-T
°C
Wind Press
QNH
hPa
Press
MSL
hPa
Rain since
9am
mm
Dir  Spd
km/h
Gust
km/h
Spd
kts
Gust
kts
07/06:00am -0.4 -8.8 -6.0 66 1.9 S 30 37 16 20 1027.4 1030.6 2.4
07/05:30am -0.4 -8.3 -5.0 71 1.6 S 28 37 15 20 1027.0 1030.2 2.4
07/05:00am -0.2 -8.7 -3.6 78 1.2 S 32 41 17 22 1027.1 1030.3 2.4
07/04:30am -0.4 -8.5 -2.8 84 0.9 S 30 39 16 21 1027.4 1030.6 2.4
07/04:00am -1.5 -8.5 -3.1 89 0.5 S 24 28 13 15 1027.5 1030.7 2.4
07/03:30am -1.8 -8.7 -2.5 95 0.2 S 24 32 13 17 1027.5 1030.7 2.4
07/03:00am 0.3 -8.2 -3.4 76 1.4 S 32 43 17 23 1027.1 1030.3 2.4
07/02:30am -0.9 -9.7 -1.5 96 0.2 S 35 39 19 21 1027.4 1030.6 2.4
07/02:00am -0.8 -10.0 -1.5 95 0.2 S 37 44 20 24 1027.2 1030.4 2.4
07/01:30am 0.1 -8.7 -1.3 90 0.6 S 35 43 19 23 1027.5 1030.7 2.4
07/01:00am 1.6 -9.0 -3.5 69 2.0 S 43 56 23 30 1027.2 1030.4 2.4
07/12:30am 1.1 -10.1 -1.0 86 0.8 S 48 54 26 29 1027.2 1030.4 2.4
07/12:00am 1.6 -8.8 -0.5 86 0.9 S 44 56 24 30 1027.2 1030.4 2.4
 
Date/Time
EST
Temp
°C
App
Temp
°C
Dew
Point
°C
Rel
Hum
%
Delta-T
°C
Wind Press
QNH
hPa
Press
MSL
hPa
Rain since
9am
mm
Dir  Spd
km/h
Gust
km/h
Spd
kts
Gust
kts
06/11:30pm 1.6 -7.9 -0.5 86 0.9 S 39 54 21 29 1027.5 1030.7 2.4
06/11:00pm 1.2 -9.2 -0.4 89 0.6 S 44 56 24 30 1027.2 1030.4 2.4
06/10:30pm 1.1 -10.5 -0.7 88 0.7 S 50 65 27 35 1026.9 1030.1 2.4
06/10:00pm 0.6 -10.2 -0.7 91 0.5 S 46 59 25 32 1026.9 1030.1 2.4
06/09:34pm -0.5 -9.2 -0.8 98 0.1 S 35 54 19 29 1027.2 1030.4 2.4
06/09:30pm -0.8 -9.2 -1.1 98 0.1 S 33 46 18 25 1027.2 1030.4 2.4
06/09:00pm -1.0 -9.8 -1.3 98 0.1 SSE 35 44 19 24 1027.4 1030.6 2.4
06/08:30pm -1.5 -10.7 -1.6 99 0.0 S 37 48 20 26 1027.2 1030.4 2.4
06/08:00pm -1.7 -11.4 -2.0 98 0.0 S 39 46 21 25 1027.1 1030.3 2.4
06/07:30pm -1.7 -11.0 -1.8 99 0.0 S 37 48 20 26 1027.0 1030.2 2.4
06/07:00pm -1.6 -9.9 -1.7 99 0.0 S 32 43 17 23 1027.1 1030.3 2.4
06/06:30pm -1.4 -9.3 -1.7 98 0.0 S 30 39 16 21 1027.0 1030.2 2.4
06/06:00pm -1.3 -6.7 -1.7 97 0.1 S 17 22 9 12 1027.0 1030.2 2.4
06/05:30pm -1.3 -6.9 -3.0 88 0.6 S 17 20 9 11 1026.9 1030.1 2.4
06/05:00pm -0.7 -5.1 -2.7 86 0.7 S 11 15 6 8 1026.9 1030.1 2.4
06/04:30pm 0.4 -4.4 -2.8 79 1.2 SSW 13 15 7 8 1027.0 1030.2 2.4
06/04:00pm 0.7 -4.2 -3.2 75 1.5 SSW 13 17 7 9 1026.8 1029.9 2.4
06/03:30pm 1.1 -4.1 -3.0 74 1.6 SSW 15 17 8 9 1026.8 1029.9 2.4
06/03:00pm 1.0 -3.8 -2.9 75 1.5 SSW 13 15 7 8 1026.7 1029.8 2.2
06/02:30pm 0.7 -3.4 -3.0 76 1.4 SSW 9 13 5 7 1026.7 1029.8 2.0
06/02:00pm 1.2 -2.9 -2.9 74 1.6 S 9 15 5 8 1026.8 1029.9 1.8
06/01:30pm 0.8 -3.3 -2.9 76 1.5 SSW 9 15 5 8 1026.9 1030.1 1.2
06/01:00pm -0.1 -4.5 -2.5 84 0.9 SSW 11 15 6 8 1027.0 1030.2 1.0
06/12:30pm -0.1 -4.9 -2.6 83 0.9 S 13 19 7 10 1027.2 1030.4 0.4
06/12:00pm -0.1 -3.8 -2.8 82 1.0 SSW 7 11 4 6 1027.2 1030.4 0.2
06/11:30am -0.2 -4.3 -2.7 83 0.9 SSE 9 11 5 6 1027.4 1030.6 0.2
06/11:00am 0.1 -4.9 -4.0 74 1.5 S 13 17 7 9 1027.6 1030.8 0.0
06/10:30am 1.0 -2.1 -5.7 61 2.4 SSE 2 6 1 3 1027.8 1031.1 0.0
06/10:00am 0.4 -5.0 -8.5 51 2.9 S 13 19 7 10 1027.6 1030.8 0.0
06/09:30am -0.7 -8.7 -9.8 50 2.8 SSW 26 28 14 15 1027.4 1030.6 0.0
06/09:00am 0.1 -8.4 -12.2 39 3.6 SSW 28 32 15 17 1027.4 1030.6 9.4
06/08:30am -0.7 -8.9 -12.6 40 3.4 SSW 26 30 14 16 1027.1 1030.3 9.4
06/08:00am -1.2 -10.1 -12.7 41 3.2 SSW 30 33 16 18 1026.8 1029.9 9.2
06/07:30am -0.8 -9.7 -12.1 42 3.3 SSW 30 35 16 19 1026.5 1029.7 9.2
06/07:00am -0.1 -7.8 -11.7 41 3.5 SSW 24 32 13 17 1026.2 1029.3 9.2
06/06:30am -0.4 -7.7 -11.4 43 3.3 SSW 22 24 12 13 1025.8 1029.0 9.2
06/06:00am -1.4 -7.7 -9.7 53 2.5 SSW 17 19 9 10 1025.6 1028.7 9.2
06/05:30am -1.2 -7.9 -8.4 58 2.3 SSW 20 26 11 14 1025.1 1028.2 9.2
06/05:00am -1.7 -9.4 -10.7 50 2.6 SSW 24 28 13 15 1025.0 1028.1 9.2
06/04:30am -2.2 -8.9 -8.3 63 1.9 SSW 20 26 11 14 1024.9 1028.0 9.2
06/04:00am -1.7 -8.9 -9.1 57 2.3 SSW 22 28 12 15 1025.0 1028.1 9.2
06/03:30am -1.2 -8.4 -9.5 53 2.6 S 22 26 12 14 1025.1 1028.2 9.2
06/03:00am -1.6 -7.0 -7.9 62 2.0 SSE 13 19 7 10 1025.1 1028.2 9.2
06/02:30am -1.2 -6.9 -7.5 62 2.0 SSE 15 26 8 14 1025.1 1028.2 9.2
06/02:00am -1.5 -6.8 -7.0 66 1.8 S 13 17 7 9 1025.2 1028.3 9.2
06/01:30am -1.7 -6.2 -3.1 90 0.4 SSE 11 19 6 10 1025.2 1028.3 9.2
06/01:00am -1.5 -5.8 -1.6 99 0.0 SSE 11 15 6 8 1025.2 1028.3 9.2
06/12:30am -1.3 -5.9 -1.4 99 0.0 SSE 13 17 7 9 1025.3 1028.5 9.2
06/12:00am -0.7 -4.5 -0.8 99 0.0 SE 9 17 5 9 1025.6 1028.7 9.2
 
Date/Time
EST
Temp
°C
App
Temp
°C
Dew
Point
°C
Rel
Hum
%
Delta-T
°C
Wind Press
QNH
hPa
Press
MSL
hPa
Rain since
9am
mm
Dir  Spd
km/h
Gust
km/h
Spd
kts
Gust
kts
05/11:30pm -0.6 -4.0 -0.7 99 0.0 S 7 13 4 7 1025.5 1028.6 9.2
05/11:00pm -0.3 -6.1 -0.4 99 0.0 S 20 30 11 16 1025.1 1028.2 9.2
05/10:30pm -0.4 -6.1 -0.7 98 0.1 SSW 19 24 10 13 1025.0 1028.1 9.2
05/10:00pm 0.0 -5.8 -0.3 98 0.1 S 20 28 11 15 1025.0 1028.1 9.2
05/09:30pm -0.2 -6.5 -0.8 96 0.2 S 22 30 12 16 1024.6 1027.7 9.2
05/09:00pm 0.3 -6.7 -0.3 96 0.2 S 26 32 14 17 1024.4 1027.5 9.2
05/08:30pm -0.1 -6.7 -0.5 97 0.2 S 24 30 13 16 1024.3 1027.3 9.2
05/08:00pm 0.1 -8.0 -0.5 96 0.2 S 32 37 17 20 1024.0 1027.1 9.2
05/07:30pm -0.1 -7.9 -0.5 97 0.2 S 30 35 16 19 1023.8 1026.8 9.2
05/07:00pm 0.0 -6.6 -0.7 95 0.3 S 24 32 13 17 1023.9 1027.0 9.2
05/06:30pm 0.1 -5.8 -1.0 92 0.4 S 20 30 11 16 1023.6 1026.6 9.2
05/06:00pm 0.5 -6.6 -1.4 87 0.8 S 26 32 14 17 1023.2 1026.2 9.2
05/05:30pm 0.6 -6.5 -1.6 85 0.9 S 26 30 14 16 1022.8 1025.8 9.2
05/05:00pm 0.6 -6.8 -1.0 89 0.7 S 28 32 15 17 1022.5 1025.5 9.0
05/04:30pm 0.9 -5.4 -1.0 87 0.8 S 22 26 12 14 1022.7 1025.7 8.8
05/04:00pm 1.6 -5.1 -0.8 84 1.0 S 24 28 13 15 1022.7 1025.7 8.6
05/03:30pm 1.9 -4.8 -1.0 81 1.2 S 24 32 13 17 1022.7 1025.7 8.0
05/03:00pm 2.1 -4.6 -1.0 80 1.3 S 24 33 13 18 1022.6 1025.6 7.2
05/02:30pm 2.2 -4.5 -0.9 80 1.3 S 24 33 13 18 1022.7 1025.7 6.0
05/02:00pm 1.9 -3.2 -1.7 77 1.4 S 15 20 8 11 1022.6 1025.6 5.2
05/01:30pm 2.1 -3.4 -1.9 75 1.6 S 17 22 9 12 1022.6 1025.6 3.6
05/01:00pm 1.8 -2.9 -2.1 75 1.5 SSW 13 19 7 10 1022.7 1025.7 2.0
05/12:30pm 1.7 -3.9 -2.8 72 1.8 S 17 24 9 13 1022.8 1025.8 1.6
05/12:00pm 1.2 -5.5 -4.0 68 2.0 S 22 28 12 15 1023.0 1026.0 1.2
05/11:30am 0.9 -7.0 -5.1 64 2.2 S 28 35 15 19 1023.1 1026.1 1.2
05/11:00am 0.4 -6.8 -5.6 64 2.1 S 24 32 13 17 1023.0 1026.0 0.8
05/10:30am 0.3 -8.5 -5.9 63 2.2 SSW 32 39 17 21 1023.1 1026.1 0.0
05/10:00am 0.1 -9.2 -5.7 65 2.0 SSW 35 46 19 25 1022.7 1025.7 0.0
05/09:30am -0.4 -10.5 -5.6 68 1.8 SSW 39 48 21 26 1022.4 1025.4 0.0
05/09:00am -1.1 -9.7 -4.4 78 1.1 SSW 32 39 17 21 1022.3 1025.2 0.0
05/08:30am -1.8 -9.6 -4.1 84 0.7 S 28 39 15 21 1022.0 1025.0 0.0
05/08:00am -2.2 -8.3 -3.9 88 0.5 S 19 28 10 15 1021.8 1024.7 0.0
05/07:30am -2.3 -8.4 -3.9 89 0.5 S 19 26 10 14 1021.4 1024.4 0.0
05/07:00am -2.4 -9.4 -3.4 93 0.2 SSW 24 37 13 20 1020.7 1023.6 0.0
05/06:30am -2.2 -10.7 -3.0 94 0.2 SSW 32 43 17 23 1020.3 1023.2 0.0
05/06:00am -2.2 -12.3 -2.6 97 0.0 SSW 41 50 22 27 1019.6 1022.5 0.0
05/05:30am -2.3 -12.1 -2.7 97 0.0 SSW 39 46 21 25 1019.5 1022.4 0.0
05/05:00am -2.5 -12.7 -2.9 97 0.0 SSW 41 48 22 26 1019.4 1022.2 0.0
05/04:30am -2.8 -11.3 -3.1 98 0.0 SSW 32 37 17 20 1019.5 1022.4 0.0
05/04:00am -2.3 -10.3 -2.6 98 0.0 SSW 30 35 16 19 1019.5 1022.4 0.0
05/03:30am -2.2 -9.4 -2.3 99 -0.1 SSW 26 35 14 19 1019.8 1022.6 0.0
05/03:00am -1.8 -9.4 -1.9 99 -0.1 SSW 28 33 15 18 1019.9 1022.7 0.0
05/02:30am -1.5 -9.8 -1.6 99 0.0 SSW 32 41 17 22 1020.0 1022.9 0.0
05/02:00am -1.1 -9.0 -1.2 99 0.0 SSW 30 39 16 21 1020.2 1023.1 0.0
05/01:30am -0.8 -9.2 -0.9 99 0.0 SSW 33 44 18 24 1020.1 1023.0 0.0
05/01:00am -0.4 -7.4 -0.5 99 0.0 SSW 26 35 14 19 1020.3 1023.2 0.0
05/12:30am -0.3 -9.0 -0.4 99 0.0 SSW 35 41 19 22 1020.2 1023.1 0.0
05/12:00am -0.2 -11.7 -0.3 99 0.0 SSW 50 61 27 33 1019.8 1022.6 0.0
 
Date/Time
EST
Temp
°C
App
Temp
°C
Dew
Point
°C
Rel
Hum
%
Delta-T
°C
Wind Press
QNH
hPa
Press
MSL
hPa
Rain since
9am
mm
Dir  Spd
km/h
Gust
km/h
Spd
kts
Gust
kts
04/11:30pm -0.5 -10.0 -0.6 99 0.0 SW 39 50 21 27 1020.2 1023.1 0.0
04/11:00pm -0.4 -12.0 -0.5 99 0.0 SW 50 59 27 32 1020.1 1023.0 0.0
04/10:50pm -0.3 -9.0 -0.4 99 0.0 SW 35 54 19 29 1020.3 1023.2 0.0
04/10:30pm -0.3 -8.6 -0.4 99 0.0 SW 33 44 18 24 1020.6 1023.5 0.0
04/10:00pm -0.4 -7.0 -0.5 99 0.0 SW 24 33 13 18 1020.8 1023.7 0.0
04/09:30pm -0.4 -5.7 -0.5 99 0.0 WSW 17 35 9 19 1020.9 1023.9 0.0
04/09:06pm -0.5 -7.9 -0.6 99 0.0 WSW 28 46 15 25 1020.3 1023.2 0.0
04/09:00pm -0.5 -7.1 -0.6 99 0.0 WSW 24 39 13 21 1020.5 1023.4 0.0
04/08:38pm -0.3 -8.0 -0.4 99 0.0 SW 30 57 16 31 1020.5 1023.4 0.0
04/08:30pm -0.3 -8.4 -0.4 99 0.0 SW 32 46 17 25 1020.6 1023.5 0.0
04/08:00pm -0.2 -9.3 -0.3 99 0.0 SW 37 50 20 27 1020.2 1023.1 0.0
04/07:30pm -0.2 -9.3 -0.3 99 0.0 SW 37 50 20 27 1020.0 1022.9 0.0
04/07:00pm -0.4 -9.5 -0.5 99 0.0 SW 37 52 20 28 1019.6 1022.5 0.0
04/06:39pm -0.5 -8.8 -0.6 99 0.0 SW 33 54 18 29 1019.5 1022.4 0.0
04/06:30pm -0.5 -8.3 -0.6 99 0.0 SW 30 37 16 20 1019.8 1022.6 0.0
04/06:00pm -0.5 -10.0 -0.6 99 0.0 SW 39 54 21 29 1019.6 1022.5 0.0
04/05:30pm -0.7 -8.9 -0.8 99 0.0 SW 32 39 17 21 1019.5 1022.4 0.0
04/05:00pm -0.8 -8.6 -0.9 99 0.0 SW 30 41 16 22 1019.6 1022.5 0.0
04/04:30pm -0.8 -9.0 -0.9 99 0.0 SW 32 39 17 21 1019.4 1022.2 0.0
04/04:00pm -0.8 -7.9 -0.9 99 0.0 SW 26 37 14 20 1019.5 1022.4 0.0
04/03:30pm -0.9 -6.8 -1.0 99 0.0 WSW 20 32 11 17 1019.0 1021.9 0.0
04/03:00pm -1.0 -6.4 -1.1 99 0.0 WSW 17 28 9 15 1019.0 1021.9 0.0
04/02:30pm -1.1 -8.2 -1.2 99 0.0 SW 26 39 14 21 1019.0 1021.9 0.0
04/02:00pm -1.2 -9.4 -1.3 99 0.0 SW 32 41 17 22 1019.0 1021.9 0.0
04/01:30pm -1.1 -9.0 -1.2 99 0.0 SW 30 44 16 24 1018.9 1021.7 0.0
04/01:00pm -0.8 -9.0 -0.9 99 0.0 SW 32 44 17 24 1019.0 1021.9 0.0
04/12:30pm -0.8 -7.1 -0.9 99 0.0 SW 22 30 12 16 1019.2 1022.0 0.0
04/12:00pm -0.9 -9.3 -1.0 99 0.0 SSW 33 46 18 25 1019.8 1022.6 0.0
04/11:30am -1.1 -12.0 -1.2 99 0.0 SSW 46 57 25 31 1019.8 1022.6 0.0
04/11:00am -1.3 -11.6 -1.4 99 0.0 SW 43 56 23 30 1019.6 1022.5 0.0
04/10:30am -1.8 -12.8 -2.1 98 0.0 SW 46 56 25 30 1019.6 1022.5 0.0
04/10:00am -2.3 -13.0 -2.6 98 0.0 SSW 44 57 24 31 1019.2 1022.0 0.0
04/09:30am -2.8 -14.3 -3.1 98 0.0 SSW 48 59 26 32 1018.7 1021.5 0.0
04/09:02am -3.9 -14.8 -4.4 96 0.0 SSW 44 63 24 34 1018.6 1021.4 0.0
04/09:00am -4.2 -14.9 -4.7 96 0.0 SSW 43 54 23 29 1018.6 1021.4 0.0
04/08:45am -5.1 -13.9 -5.8 95 0.0 SSW 32 52 17 28 1018.7 1021.5 0.0
04/08:30am -5.6 -11.6 -6.3 95 0.0 SSW 17 28 9 15 1018.6 1021.4 0.0
04/08:00am -5.6 -11.6 -6.3 95 0.0 SSW 17 24 9 13 1018.3 1021.1 0.0
04/07:30am -5.3 -12.6 -6.0 95 0.0 SSW 24 30 13 16 1018.1 1020.9 0.0
04/07:00am -4.9 -12.5 -5.4 96 0.0 SSW 26 33 14 18 1017.6 1020.4 0.0
04/06:30am -4.4 -13.1 -4.9 96 0.0 SSW 32 41 17 22 1017.0 1019.8 0.0

Other formats

Comma delimited format used in spreadsheet applications
http://www.bom.gov.au/fwo/IDV60801/IDV60801.94903.axf

JavaScript Object Notation format (JSON) in row-major order
http://www.bom.gov.au/fwo/IDV60801/IDV60801.94903.json

Data quality

Most of these data are generated automatically and are frequently updated. Quality checks on data are not normally performed. It is possible for incorrect values to appear. Refer to information at About Latest Weather Observations and please check the disclaimer before using these data.